Time;durP1;ratioP1;P1;durP2;ratioP2;P2;SDS_P1;SDS_P2;PMS_P1;PMS_P2;Temp;Humidity;BMP_temperature;BMP_pressure;BME280_temperature;BME280_humidity;BME280_pressure;Samples;Min_cycle;Max_cycle;Signal;HPM_P1;HPM_P2
2023/01/02 00:01:22;;;;;;;9.57;5.40;;;11.60;99.90;;;;;;5068532;28;20028;-74
2023/01/02 00:03:47;;;;;;;11.52;5.38;;;11.60;99.90;;;;;;5060061;28;20024;-74
2023/01/02 00:06:13;;;;;;;9.50;5.15;;;11.60;99.90;;;;;;5056493;28;20029;-74
2023/01/02 00:08:39;;;;;;;12.82;5.07;;;11.70;99.90;;;;;;5053175;28;20087;-74
2023/01/02 00:11:04;;;;;;;12.27;5.03;;;11.70;99.90;;;;;;5079728;28;20036;-74
2023/01/02 00:13:30;;;;;;;9.15;4.55;;;11.70;99.90;;;;;;5060545;28;20085;-74
2023/01/02 00:15:55;;;;;;;10.32;4.43;;;11.70;99.90;;;;;;5069835;28;20057;-74
2023/01/02 00:18:21;;;;;;;11.07;4.53;;;11.80;99.90;;;;;;5072686;28;20025;-74
2023/01/02 00:20:46;;;;;;;15.23;4.85;;;11.80;99.90;;;;;;5073691;28;20028;-74
2023/01/02 00:23:12;;;;;;;8.18;3.75;;;11.90;99.90;;;;;;5070744;28;20387;-74
2023/01/02 00:25:37;;;;;;;12.38;4.22;;;11.80;99.90;;;;;;5067008;28;20494;-74
2023/01/02 00:28:03;;;;;;;8.93;3.75;;;11.90;99.90;;;;;;5072532;28;20016;-74
2023/01/02 00:30:29;;;;;;;7.88;3.50;;;12.00;99.90;;;;;;5070308;28;20029;-74
2023/01/02 00:32:54;;;;;;;9.63;3.85;;;12.00;99.90;;;;;;5070391;28;20033;-74
2023/01/02 00:35:20;;;;;;;7.18;3.95;;;12.00;99.90;;;;;;5072321;28;20078;-75
2023/01/02 00:37:45;;;;;;;9.48;4.22;;;12.10;99.90;;;;;;5059064;28;20037;-74
2023/01/02 00:40:13;;;;;;;9.52;3.70;;;12.00;99.90;;;;;;5060284;28;20040;-76
2023/01/02 00:42:40;;;;;;;8.52;3.67;;;12.10;99.90;;;;;;5081673;28;20495;-74
2023/01/02 00:45:08;;;;;;;11.77;3.88;;;12.10;99.90;;;;;;5070044;28;20044;-74
2023/01/02 00:47:35;;;;;;;12.02;4.28;;;12.00;99.90;;;;;;5069793;28;20499;-75
2023/01/02 00:50:01;;;;;;;12.50;4.18;;;12.10;99.90;;;;;;5092389;28;20020;-74
2023/01/02 00:52:26;;;;;;;11.45;3.78;;;12.10;99.90;;;;;;5084170;28;20039;-74
2023/01/02 00:54:52;;;;;;;7.30;3.90;;;12.10;99.90;;;;;;5051816;28;20025;-74
2023/01/02 00:57:17;;;;;;;10.15;3.75;;;12.10;99.90;;;;;;5054023;28;20038;-74
2023/01/02 00:59:43;;;;;;;11.45;3.85;;;12.00;99.90;;;;;;5071557;28;20024;-74
2023/01/02 01:02:09;;;;;;;10.77;3.83;;;12.00;99.90;;;;;;5050521;28;20392;-74
2023/01/02 01:04:35;;;;;;;11.27;4.15;;;12.00;99.90;;;;;;5053233;28;20519;-74
2023/01/02 01:07:01;;;;;;;7.05;3.08;;;12.00;99.90;;;;;;5073430;28;20107;-74
2023/01/02 01:09:27;;;;;;;10.27;4.05;;;12.10;99.90;;;;;;5092059;28;20050;-74
2023/01/02 01:11:53;;;;;;;10.98;4.00;;;12.10;99.90;;;;;;5070719;28;20068;-74
2023/01/02 01:14:18;;;;;;;8.27;3.58;;;12.10;99.90;;;;;;5051567;28;20036;-74
2023/01/02 01:16:44;;;;;;;7.82;3.80;;;12.20;99.90;;;;;;5075362;28;20067;-74
2023/01/02 01:19:09;;;;;;;6.72;3.42;;;12.20;99.90;;;;;;5088906;28;20046;-74
2023/01/02 01:21:35;;;;;;;11.32;4.40;;;12.20;99.90;;;;;;5090058;28;20162;-73
2023/01/02 01:24:01;;;;;;;6.88;3.28;;;12.30;99.90;;;;;;5050691;28;20035;-74
2023/01/02 01:26:26;;;;;;;13.52;5.45;;;12.30;99.90;;;;;;5070027;28;20030;-75
2023/01/02 01:28:55;;;;;;;16.85;4.70;;;12.30;99.90;;;;;;5064119;28;20122;-74
2023/01/02 01:31:22;;;;;;;12.80;3.50;;;12.30;99.90;;;;;;5060487;28;20115;-74
2023/01/02 01:33:48;;;;;;;10.25;4.00;;;12.30;99.90;;;;;;5055313;28;20115;-74
2023/01/02 01:36:20;;;;;;;9.52;3.83;;;12.30;99.90;;;;;;5067350;28;20520;-74
2023/01/02 01:38:46;;;;;;;9.27;3.67;;;12.40;99.90;;;;;;5059932;28;20021;-75
2023/01/02 01:41:13;;;;;;;7.95;3.63;;;12.40;99.90;;;;;;5051216;28;20510;-74
2023/01/02 01:43:44;;;;;;;6.30;2.60;;;12.40;99.90;;;;;;5070531;28;20387;-74
2023/01/02 01:46:32;;;;;;;10.07;3.47;;;12.40;99.90;;;;;;5080536;28;20029;-74
2023/01/02 01:49:15;;;;;;;11.05;3.25;;;12.40;99.90;;;;;;5061831;28;20027;-74
2023/01/02 01:51:59;;;;;;;10.50;3.63;;;12.40;99.90;;;;;;5086774;28;20063;-74
2023/01/02 01:54:32;;;;;;;8.73;2.60;;;12.50;99.90;;;;;;5050651;28;20022;-75
2023/01/02 01:57:15;;;;;;;10.35;2.83;;;12.40;99.90;;;;;;5060581;28;20032;-75
2023/01/02 01:59:40;;;;;;;;;;;12.50;99.90;;;;;;5071081;28;20490;-74
2023/01/02 02:02:06;;;;;;;8.93;2.67;;;12.50;99.90;;;;;;5071809;28;19907;-74
2023/01/02 02:04:32;;;;;;;8.60;3.15;;;12.50;99.90;;;;;;5061770;28;20404;-74
2023/01/02 02:06:58;;;;;;;9.02;2.75;;;12.50;99.90;;;;;;5065166;28;20024;-74
2023/01/02 02:09:34;;;;;;;7.18;2.80;;;12.50;99.90;;;;;;5091421;28;20036;-74
2023/01/02 02:12:01;;;;;;;8.02;2.58;;;12.50;99.90;;;;;;5064065;28;20029;-74
2023/01/02 02:14:26;;;;;;;9.65;2.78;;;12.40;99.90;;;;;;5068046;28;20150;-74
2023/01/02 02:17:06;;;;;;;11.50;3.70;;;12.50;99.90;;;;;;5092946;28;20126;-74
2023/01/02 02:20:05;;;;;;;7.60;2.60;;;12.50;99.90;;;;;;5073464;28;20032;-74
2023/01/02 02:23:02;;;;;;;9.07;2.63;;;12.50;99.90;;;;;;5072957;28;20020;-74
2023/01/02 02:25:47;;;;;;;8.50;2.92;;;12.50;99.90;;;;;;5091000;28;20085;-74
2023/01/02 02:28:31;;;;;;;10.05;2.75;;;12.50;99.90;;;;;;5093688;28;20500;-74
2023/01/02 02:31:02;;;;;;;8.73;2.67;;;12.50;99.90;;;;;;5060487;28;20028;-75
2023/01/02 02:33:34;;;;;;;11.70;2.65;;;12.60;99.90;;;;;;5062360;28;20037;-74
2023/01/02 02:36:20;;;;;;;9.75;2.22;;;12.50;99.90;;;;;;5072334;28;20062;-74
2023/01/02 02:39:13;;;;;;;8.48;2.38;;;12.60;99.90;;;;;;5054545;28;20124;-74
2023/01/02 02:41:54;;;;;;;7.53;2.97;;;12.60;99.90;;;;;;5072463;28;20043;-74
2023/01/02 02:44:34;;;;;;;7.55;2.88;;;12.60;99.90;;;;;;5076578;28;20055;-74
2023/01/02 02:47:20;;;;;;;9.23;2.10;;;12.60;99.90;;;;;;5085847;28;20016;-74
2023/01/02 02:49:55;;;;;;;5.22;2.85;;;12.60;99.90;;;;;;5082423;28;20395;-74
2023/01/02 02:52:40;;;;;;;9.88;2.65;;;12.60;99.90;;;;;;5043256;28;20108;-74
2023/01/02 02:55:21;;;;;;;8.90;2.60;;;12.60;99.90;;;;;;5056757;28;20032;-74
2023/01/02 02:57:49;;;;;;;10.23;2.30;;;12.60;99.90;;;;;;5071828;28;20024;-74
2023/01/02 03:00:21;;;;;;;8.90;2.35;;;12.60;99.90;;;;;;5070852;28;20029;-74
2023/01/02 03:02:47;;;;;;;10.75;2.47;;;12.60;99.90;;;;;;5073125;28;20033;-74
2023/01/02 03:05:20;;;;;;;7.65;2.83;;;12.60;99.90;;;;;;5073911;28;20032;-74
2023/01/02 03:07:57;;;;;;;13.57;4.15;;;12.60;99.90;;;;;;5071530;28;20033;-74
2023/01/02 03:10:36;;;;;;;8.60;2.83;;;12.60;99.90;;;;;;5066563;28;20025;-74
2023/01/02 03:13:08;;;;;;;8.68;2.55;;;12.50;99.90;;;;;;5071601;28;20075;-74
2023/01/02 03:15:44;;;;;;;12.40;2.90;;;12.60;99.90;;;;;;5056620;28;20384;-74
2023/01/02 03:18:21;;;;;;;8.43;2.40;;;12.60;99.90;;;;;;5053865;28;20021;-74
2023/01/02 03:21:11;;;;;;;13.20;2.83;;;12.50;99.90;;;;;;5064063;28;20103;-73
2023/01/02 03:23:43;;;;;;;10.05;2.30;;;12.50;99.90;;;;;;5070694;28;20028;-74
2023/01/02 03:26:11;;;;;;;9.57;2.63;;;12.60;99.90;;;;;;5055237;28;20025;-74
2023/01/02 03:28:39;;;;;;;9.98;2.42;;;12.50;99.90;;;;;;5058515;28;20144;-74
2023/01/02 03:31:10;;;;;;;9.10;2.15;;;12.50;99.90;;;;;;5055458;28;20024;-75
2023/01/02 03:33:40;;;;;;;5.32;1.85;;;12.60;99.90;;;;;;5080843;28;20466;-74
2023/01/02 03:36:13;;;;;;;7.93;2.78;;;12.60;99.90;;;;;;5053388;28;20025;-74
2023/01/02 03:38:40;;;;;;;;;;;12.70;99.90;;;;;;5053378;28;20020;-74
2023/01/02 03:41:16;;;;;;;8.95;2.15;;;12.60;99.90;;;;;;5054593;28;19927;-74
2023/01/02 03:43:44;;;;;;;9.68;2.35;;;12.70;99.90;;;;;;5085510;28;20419;-74
2023/01/02 03:46:28;;;;;;;8.23;2.15;;;12.70;99.90;;;;;;5091441;28;20428;-74
2023/01/02 03:49:22;;;;;;;9.63;2.30;;;12.80;99.90;;;;;;5067756;28;20025;-74
2023/01/02 03:51:49;;;;;;;5.70;1.73;;;12.80;99.90;;;;;;5051142;28;20090;-74
2023/01/02 03:54:16;;;;;;;10.45;2.05;;;12.70;99.90;;;;;;5055523;28;20025;-74
2023/01/02 03:57:10;;;;;;;8.40;2.05;;;12.80;99.90;;;;;;5067827;28;20028;-74
2023/01/02 03:59:45;;;;;;;8.77;2.00;;;12.80;99.90;;;;;;5067156;28;20020;-74
2023/01/02 04:02:17;;;;;;;7.03;2.15;;;12.80;99.90;;;;;;5073091;28;20088;-74
2023/01/02 04:04:57;;;;;;;5.45;2.15;;;12.80;99.90;;;;;;5078683;28;20518;-74
2023/01/02 04:07:50;;;;;;;8.52;1.73;;;12.80;99.90;;;;;;5082011;28;20043;-74
2023/01/02 04:10:16;;;;;;;11.32;1.75;;;12.90;99.90;;;;;;5036978;28;20045;-74
2023/01/02 04:12:46;;;;;;;7.75;1.98;;;12.90;99.90;;;;;;5087909;28;20175;-74
2023/01/02 04:15:13;;;;;;;8.32;2.33;;;12.80;99.90;;;;;;5074001;28;20032;-74
2023/01/02 04:17:58;;;;;;;6.68;2.42;;;12.90;99.90;;;;;;5083441;28;20045;-73
2023/01/02 04:20:33;;;;;;;8.75;2.05;;;12.90;99.90;;;;;;5069909;28;20029;-74
2023/01/02 04:23:08;;;;;;;6.28;1.80;;;12.90;99.90;;;;;;5053047;28;20087;-74
2023/01/02 04:25:46;;;;;;;7.30;1.92;;;12.90;99.90;;;;;;5076528;28;20104;-74
2023/01/02 04:28:16;;;;;;;6.03;1.35;;;12.80;99.90;;;;;;5040729;28;20016;-73
2023/01/02 04:30:48;;;;;;;8.77;1.83;;;12.80;99.90;;;;;;5060449;28;20083;-74
2023/01/02 04:33:16;;;;;;;11.45;1.55;;;12.80;99.90;;;;;;5062248;28;20475;-73
2023/01/02 04:35:41;;;;;;;7.60;1.95;;;12.80;99.90;;;;;;5088296;28;20024;-73
2023/01/02 04:38:09;;;;;;;3.10;1.48;;;12.80;99.90;;;;;;5088639;28;20024;-74
2023/01/02 04:40:36;;;;;;;6.38;1.80;;;12.80;99.90;;;;;;5072848;28;20472;-75
2023/01/02 04:43:06;;;;;;;4.32;1.60;;;12.80;99.90;;;;;;5076501;28;20108;-74
2023/01/02 04:45:32;;;;;;;8.77;1.73;;;12.80;99.90;;;;;;5067931;28;20021;-74
2023/01/02 04:47:57;;;;;;;5.70;1.75;;;12.80;99.90;;;;;;5069279;28;20024;-74
2023/01/02 04:50:23;;;;;;;5.53;1.88;;;12.80;99.90;;;;;;5048839;28;20020;-73
2023/01/02 04:52:48;;;;;;;5.57;2.22;;;12.80;99.90;;;;;;5059053;28;20511;-74
2023/01/02 04:55:14;;;;;;;8.55;2.65;;;12.70;99.90;;;;;;5070965;28;20492;-73
2023/01/02 04:57:39;;;;;;;9.02;1.77;;;12.80;99.90;;;;;;5051252;28;20035;-74
2023/01/02 05:00:06;;;;;;;6.53;2.65;;;12.70;99.90;;;;;;5061153;28;20028;-74
2023/01/02 05:02:36;;;;;;;8.05;2.00;;;12.70;99.90;;;;;;5056129;28;20020;-73
2023/01/02 05:05:02;;;;;;;6.82;2.00;;;12.70;99.90;;;;;;5068233;28;20020;-74
2023/01/02 05:07:28;;;;;;;9.57;2.00;;;12.70;99.90;;;;;;5091720;28;20024;-73
2023/01/02 05:09:53;;;;;;;8.48;2.10;;;12.80;99.90;;;;;;5084415;28;20028;-74
2023/01/02 05:12:19;;;;;;;7.43;2.67;;;12.70;99.90;;;;;;5054921;28;20123;-74
2023/01/02 05:14:44;;;;;;;7.43;1.90;;;12.70;99.90;;;;;;5057390;28;20029;-74
2023/01/02 05:17:10;;;;;;;7.05;2.50;;;12.70;99.90;;;;;;5051908;28;20025;-73
2023/01/02 05:19:36;;;;;;;10.05;2.35;;;12.70;99.90;;;;;;5051613;28;20030;-74
2023/01/02 05:24:45;;;;;;;6.03;1.75;;;12.70;99.90;;;;;;5069870;28;20529;-74
2023/01/02 05:27:11;;;;;;;6.03;1.77;;;12.70;99.90;;;;;;5068444;28;20064;-74
2023/01/02 05:29:36;;;;;;;6.45;2.15;;;12.80;99.90;;;;;;5064533;28;20109;-73
2023/01/02 05:32:02;;;;;;;9.43;2.20;;;12.80;99.90;;;;;;5051493;28;20045;-74
2023/01/02 05:34:27;;;;;;;8.45;1.95;;;12.80;99.90;;;;;;5051285;28;20040;-74
2023/01/02 05:36:53;;;;;;;7.63;1.92;;;12.70;99.90;;;;;;5069336;28;20039;-74
2023/01/02 05:39:18;;;;;;;6.07;1.88;;;12.80;99.90;;;;;;5085197;28;20345;-74
2023/01/02 05:41:44;;;;;;;7.50;1.80;;;12.80;99.90;;;;;;5066696;28;20055;-74
2023/01/02 05:44:10;;;;;;;4.68;2.10;;;12.70;99.90;;;;;;5061563;28;20033;-73
2023/01/02 05:46:37;;;;;;;3.78;2.05;;;12.70;99.90;;;;;;5066080;28;20513;-74
2023/01/02 05:49:06;;;;;;;4.88;1.90;;;12.80;99.90;;;;;;5091147;28;20016;-73
2023/01/02 05:51:31;;;;;;;8.75;2.03;;;12.80;99.90;;;;;;5066115;28;20048;-74
2023/01/02 05:53:57;;;;;;;5.88;1.70;;;12.70;99.90;;;;;;5061713;28;20029;-74
2023/01/02 05:56:23;;;;;;;10.35;3.72;;;12.70;99.90;;;;;;5063290;28;20101;-74
2023/01/02 05:58:49;;;;;;;8.95;1.75;;;12.70;99.90;;;;;;5053327;28;20041;-74
2023/01/02 06:01:18;;;;;;;7.25;1.98;;;12.70;99.90;;;;;;5068233;28;20520;-74
2023/01/02 06:03:44;;;;;;;7.38;1.77;;;12.70;99.90;;;;;;5065735;28;20029;-74
2023/01/02 06:06:10;;;;;;;8.88;2.08;;;12.80;99.90;;;;;;5057017;28;20059;-74
2023/01/02 06:08:37;;;;;;;4.63;1.80;;;12.80;99.90;;;;;;5059264;28;20119;-74
2023/01/02 06:11:04;;;;;;;4.53;1.80;;;12.80;99.90;;;;;;5050901;28;20027;-74
2023/01/02 06:13:30;;;;;;;7.93;2.20;;;12.80;99.90;;;;;;5058643;28;20070;-74
2023/01/02 06:15:57;;;;;;;4.22;1.65;;;12.80;99.90;;;;;;5065853;28;20029;-74
2023/01/02 06:18:23;;;;;;;7.07;1.90;;;12.90;99.90;;;;;;5074215;28;20101;-73
2023/01/02 06:20:48;;;;;;;7.05;1.70;;;12.80;99.90;;;;;;5075133;28;20464;-74
2023/01/02 06:23:14;;;;;;;6.25;1.90;;;12.80;99.90;;;;;;5065147;28;20029;-73
2023/01/02 06:25:40;;;;;;;6.00;1.95;;;12.80;99.90;;;;;;5051994;28;20020;-74
2023/01/02 06:28:06;;;;;;;5.45;1.60;;;12.80;99.90;;;;;;5057518;28;20040;-73
2023/01/02 06:30:31;;;;;;;4.25;1.30;;;12.70;99.90;;;;;;5059908;28;20107;-73
2023/01/02 06:32:57;;;;;;;6.07;2.00;;;12.70;99.90;;;;;;5059178;28;20445;-74
2023/01/02 06:35:23;;;;;;;8.27;2.10;;;12.70;99.90;;;;;;5061177;28;20585;-73
2023/01/02 06:37:49;;;;;;;5.80;2.30;;;12.60;99.90;;;;;;5059337;28;20043;-73
2023/01/02 06:40:14;;;;;;;2.15;0.98;;;12.40;99.90;;;;;;5063070;28;20040;-73
2023/01/02 06:42:43;;;;;;;1.50;0.70;;;12.10;99.90;;;;;;5059516;28;20036;-73
2023/01/02 06:45:09;;;;;;;1.27;0.50;;;11.60;99.90;;;;;;5044669;28;20056;-73
2023/01/02 06:47:34;;;;;;;0.40;0.20;;;11.30;99.90;;;;;;5065853;28;20020;-73
2023/01/02 06:50:00;;;;;;;0.77;0.10;;;11.00;99.90;;;;;;5060234;28;20351;-73
2023/01/02 06:52:27;;;;;;;0.85;0.10;;;10.80;99.90;;;;;;5069550;28;20051;-73
2023/01/02 06:54:52;;;;;;;0.32;0.10;;;10.60;99.90;;;;;;5069120;28;20033;-74
2023/01/02 06:57:18;;;;;;;0.73;0.20;;;10.50;99.90;;;;;;5078754;28;20138;-73
2023/01/02 06:59:43;;;;;;;0.95;0.20;;;10.50;99.90;;;;;;5079763;28;20024;-74
2023/01/02 07:02:13;;;;;;;0.73;0.20;;;10.40;99.90;;;;;;5061566;28;20067;-74
2023/01/02 07:04:39;;;;;;;1.10;0.20;;;10.40;99.90;;;;;;5076097;28;20057;-74
2023/01/02 07:07:05;;;;;;;0.85;0.20;;;10.40;99.90;;;;;;5056871;28;20068;-74
2023/01/02 07:09:31;;;;;;;0.20;0.10;;;10.40;99.90;;;;;;5084293;28;20052;-74
2023/01/02 07:11:57;;;;;;;0.20;0.10;;;10.30;99.90;;;;;;5057043;28;20492;-74
2023/01/02 07:14:23;;;;;;;0.45;0.10;;;10.30;99.90;;;;;;5060840;28;20028;-73
2023/01/02 07:16:48;;;;;;;0.40;0.10;;;10.30;99.90;;;;;;5058441;28;20142;-73
2023/01/02 07:19:14;;;;;;;0.82;0.20;;;10.20;99.90;;;;;;5060482;28;20040;-74
2023/01/02 07:21:40;;;;;;;0.98;0.40;;;10.20;99.90;;;;;;5081007;28;20074;-73
2023/01/02 07:24:05;;;;;;;1.27;0.80;;;10.10;99.90;;;;;;5055336;28;20066;-73
2023/01/02 07:26:31;;;;;;;1.73;0.70;;;10.10;99.90;;;;;;5064987;28;20060;-73
2023/01/02 07:28:56;;;;;;;2.22;0.90;;;10.10;99.90;;;;;;5062822;28;20104;-73
2023/01/02 07:31:22;;;;;;;3.25;1.70;;;10.00;99.90;;;;;;5078323;28;20024;-73
2023/01/02 07:33:48;;;;;;;3.55;2.63;;;10.00;99.90;;;;;;5092593;28;20020;-73
2023/01/02 07:36:18;;;;;;;4.68;2.88;;;10.00;99.90;;;;;;5078863;28;20027;-73
2023/01/02 07:38:48;;;;;;;4.72;3.67;;;10.00;99.90;;;;;;5061302;28;20033;-74
2023/01/02 07:41:16;;;;;;;5.13;4.13;;;10.00;99.90;;;;;;5056395;28;20041;-73
2023/01/02 07:43:43;;;;;;;6.07;5.07;;;10.10;99.90;;;;;;5078553;28;20029;-74
2023/01/02 07:46:09;;;;;;;8.48;6.22;;;10.10;99.90;;;;;;5038055;28;20461;-74
2023/01/02 07:48:34;;;;;;;7.45;5.63;;;10.20;99.90;;;;;;5053188;28;20124;-73
2023/01/02 07:51:02;;;;;;;6.90;5.55;;;10.20;99.90;;;;;;5057978;28;20027;-73
2023/01/02 07:53:28;;;;;;;7.07;5.15;;;10.20;99.90;;;;;;5054316;28;20114;-74
2023/01/02 07:55:55;;;;;;;5.70;4.15;;;10.20;99.90;;;;;;5058127;28;20032;-74
2023/01/02 07:58:20;;;;;;;5.80;4.22;;;10.20;99.90;;;;;;5054193;28;20438;-74
2023/01/02 08:00:46;;;;;;;5.82;4.30;;;10.20;99.90;;;;;;5058281;28;20036;-73
2023/01/02 08:03:11;;;;;;;7.22;4.60;;;10.20;99.90;;;;;;5053274;28;20043;-73
2023/01/02 08:05:37;;;;;;;6.13;4.10;;;10.20;99.90;;;;;;5053056;28;20103;-74
2023/01/02 08:08:02;;;;;;;9.00;4.35;;;10.20;99.90;;;;;;5054738;28;20116;-73
2023/01/02 08:10:28;;;;;;;6.40;4.15;;;10.20;99.90;;;;;;5055408;28;20036;-73
2023/01/02 08:12:56;;;;;;;5.38;3.90;;;10.20;99.90;;;;;;5050600;28;20045;-73
2023/01/02 08:15:23;;;;;;;7.82;4.78;;;10.20;99.90;;;;;;5039706;28;20025;-75
2023/01/02 08:17:48;;;;;;;6.07;3.40;;;10.10;99.90;;;;;;5049515;28;20021;-74
2023/01/02 08:20:14;;;;;;;4.93;3.63;;;10.20;99.90;;;;;;5059437;28;20028;-73
2023/01/02 08:22:39;;;;;;;7.18;4.15;;;10.20;99.90;;;;;;5052844;28;20029;-73
2023/01/02 08:25:06;;;;;;;6.85;4.30;;;10.10;99.90;;;;;;5052503;28;20029;-73
2023/01/02 08:27:31;;;;;;;6.10;3.67;;;10.10;99.90;;;;;;5070798;28;20111;-73
2023/01/02 08:29:57;;;;;;;5.18;2.75;;;10.10;99.90;;;;;;5055233;28;20108;-74
2023/01/02 08:32:22;;;;;;;5.75;2.85;;;10.10;99.90;;;;;;5067975;28;20597;-73
2023/01/02 08:34:48;;;;;;;6.13;3.65;;;10.00;99.90;;;;;;5068661;28;20052;-73
2023/01/02 08:37:14;;;;;;;5.78;3.47;;;10.00;99.90;;;;;;5078772;28;20085;-74
2023/01/02 08:39:39;;;;;;;6.50;3.83;;;10.00;99.90;;;;;;5066072;28;20056;-73
2023/01/02 08:42:05;;;;;;;6.88;3.85;;;10.00;99.90;;;;;;5064292;28;20052;-73
2023/01/02 08:44:30;;;;;;;5.72;3.42;;;9.90;99.90;;;;;;5076006;28;20427;-73
2023/01/02 08:46:56;;;;;;;5.32;2.70;;;9.90;99.90;;;;;;5062227;28;20028;-74
2023/01/02 08:49:21;;;;;;;6.90;3.50;;;9.90;99.90;;;;;;5065425;28;20017;-73
2023/01/02 08:51:47;;;;;;;5.90;3.13;;;9.90;99.90;;;;;;5051041;28;20037;-73
2023/01/02 08:54:12;;;;;;;5.80;3.38;;;9.90;99.90;;;;;;5066994;28;20067;-73
2023/01/02 08:56:40;;;;;;;4.38;2.67;;;9.90;99.90;;;;;;5060194;28;20395;-75
2023/01/02 08:59:11;;;;;;;6.22;3.17;;;9.90;99.90;;;;;;5073411;28;20099;-74
2023/01/02 09:01:37;;;;;;;4.70;2.67;;;9.90;99.90;;;;;;5048814;28;20024;-75
2023/01/02 09:04:03;;;;;;;4.72;2.42;;;9.80;99.90;;;;;;5054514;28;20556;-75
2023/01/02 09:06:32;;;;;;;7.47;3.30;;;9.80;99.90;;;;;;5068839;28;20029;-74
2023/01/02 09:08:58;;;;;;;5.55;2.55;;;9.80;99.90;;;;;;5058639;28;20029;-74
2023/01/02 09:11:34;;;;;;;4.55;2.08;;;9.80;99.90;;;;;;5067015;28;20090;-74
2023/01/02 09:14:01;;;;;;;6.90;3.00;;;9.80;99.90;;;;;;5052149;28;20555;-74
2023/01/02 09:16:27;;;;;;;6.15;2.17;;;9.80;99.90;;;;;;5060537;28;20096;-74
2023/01/02 09:18:56;;;;;;;5.53;2.50;;;9.80;99.90;;;;;;5075207;28;20025;-74
2023/01/02 09:21:21;;;;;;;6.05;2.42;;;9.90;99.90;;;;;;5059164;28;20377;-74
2023/01/02 09:23:47;;;;;;;5.70;2.97;;;9.80;99.90;;;;;;5072080;28;20031;-74
2023/01/02 09:26:13;;;;;;;5.05;2.90;;;9.80;99.90;;;;;;5066467;28;20141;-75
2023/01/02 09:28:39;;;;;;;5.93;2.05;;;9.80;99.90;;;;;;5053592;28;20028;-74
2023/01/02 09:31:11;;;;;;;5.20;2.10;;;9.80;99.90;;;;;;5058280;28;20028;-74
2023/01/02 09:33:37;;;;;;;;;;;9.80;99.90;;;;;;5067974;28;20123;-74
2023/01/02 09:36:05;;;;;;;6.22;1.73;;;9.70;99.90;;;;;;5047846;28;20006;-74
2023/01/02 09:38:31;;;;;;;4.68;2.33;;;9.80;99.90;;;;;;5057730;28;20120;-74
2023/01/02 09:40:59;;;;;;;4.80;2.30;;;9.70;99.90;;;;;;5052628;28;20132;-73
2023/01/02 09:43:31;;;;;;;4.65;2.75;;;9.80;99.90;;;;;;5071761;28;20115;-74
2023/01/02 09:46:00;;;;;;;4.82;2.95;;;9.80;99.90;;;;;;5079013;28;20375;-74
2023/01/02 09:48:31;;;;;;;5.85;2.80;;;9.80;99.90;;;;;;5049080;28;20028;-75
2023/01/02 09:50:57;;;;;;;6.07;3.50;;;9.90;99.90;;;;;;5052524;28;20024;-74
2023/01/02 09:53:22;;;;;;;8.85;3.80;;;9.90;99.90;;;;;;5052438;28;20029;-73
2023/01/02 09:55:57;;;;;;;8.15;3.90;;;9.90;99.90;;;;;;5054565;28;20047;-74
2023/01/02 09:58:44;;;;;;;7.53;3.30;;;10.00;99.90;;;;;;5045202;28;20053;-74
2023/01/02 10:01:22;;;;;;;10.35;3.78;;;10.00;99.90;;;;;;5066861;28;20475;-74
2023/01/02 10:04:18;;;;;;;7.18;3.45;;;10.00;99.90;;;;;;5056857;28;20029;-74
2023/01/02 10:06:59;;;;;;;7.70;3.47;;;10.00;99.90;;;;;;5052431;28;20588;-74
2023/01/02 10:09:47;;;;;;;6.60;3.40;;;10.00;99.90;;;;;;5062151;28;20029;-75
2023/01/02 10:12:26;;;;;;;10.05;5.10;;;10.00;99.90;;;;;;5061105;28;20079;-74
2023/01/02 10:14:58;;;;;;;8.48;5.10;;;10.00;99.90;;;;;;5059362;28;20032;-74
2023/01/02 10:17:28;;;;;;;7.17;3.70;;;10.00;99.90;;;;;;5069214;28;20111;-75
2023/01/02 10:20:02;;;;;;;5.63;4.00;;;10.00;99.90;;;;;;5050956;28;20051;-75
2023/01/02 10:22:36;;;;;;;6.30;4.13;;;10.00;99.90;;;;;;5055360;28;20033;-74
2023/01/02 10:25:15;;;;;;;6.50;3.95;;;10.10;99.90;;;;;;5073580;28;20033;-75
2023/01/02 10:27:48;;;;;;;6.13;3.55;;;10.10;99.90;;;;;;5053185;28;20485;-75
2023/01/02 10:30:22;;;;;;;6.75;2.83;;;10.10;99.90;;;;;;5081258;28;20107;-74
2023/01/02 10:32:59;;;;;;;4.53;2.78;;;10.10;99.90;;;;;;5068821;28;20115;-74
2023/01/02 10:35:47;;;;;;;10.05;3.20;;;10.20;99.90;;;;;;5068748;28;20463;-75
2023/01/02 10:38:16;;;;;;;7.75;2.60;;;10.10;99.90;;;;;;5061699;28;20492;-75
2023/01/02 10:40:44;;;;;;;5.85;2.80;;;10.20;99.90;;;;;;5071841;28;20128;-75
2023/01/02 10:43:10;;;;;;;6.85;2.60;;;10.20;99.90;;;;;;5068665;28;20032;-75
2023/01/02 10:45:36;;;;;;;5.63;2.50;;;10.20;99.90;;;;;;5073388;28;20024;-75
2023/01/02 10:48:01;;;;;;;5.00;2.47;;;10.20;99.90;;;;;;5085409;28;20067;-75
2023/01/02 10:50:35;;;;;;;3.83;1.98;;;10.10;99.90;;;;;;5056406;28;20020;-74
2023/01/02 10:53:32;;;;;;;7.28;2.42;;;10.20;99.90;;;;;;5064634;28;20033;-74
2023/01/02 10:56:21;;;;;;;7.63;2.70;;;10.10;99.90;;;;;;5052995;28;20866;-75
2023/01/02 10:58:49;;;;;;;7.55;2.22;;;10.10;99.90;;;;;;5052672;28;20041;-75
2023/01/02 11:01:18;;;;;;;3.92;1.90;;;10.10;99.90;;;;;;5066275;28;20020;-76
2023/01/02 11:03:45;;;;;;;8.20;2.35;;;10.10;99.90;;;;;;5066369;28;20021;-75
2023/01/02 11:06:22;;;;;;;3.67;2.30;;;10.10;99.90;;;;;;5063574;28;20040;-75
2023/01/02 11:08:58;;;;;;;4.05;1.67;;;10.10;99.90;;;;;;5054439;28;20392;-74
2023/01/02 11:11:26;;;;;;;6.05;2.33;;;10.10;99.90;;;;;;5074617;28;20063;-75
2023/01/02 11:13:56;;;;;;;7.28;2.00;;;10.10;99.90;;;;;;5061364;28;20553;-74
2023/01/02 11:16:24;;;;;;;4.18;1.33;;;10.10;99.90;;;;;;5055209;28;20056;-74
2023/01/02 11:18:57;;;;;;;6.93;1.73;;;10.10;99.90;;;;;;5060634;28;20040;-74
2023/01/02 11:21:38;;;;;;;4.97;1.60;;;10.20;99.90;;;;;;5068695;28;20025;-74
2023/01/02 11:24:15;;;;;;;4.82;1.70;;;10.20;99.90;;;;;;5041986;28;20033;-75
2023/01/02 11:26:43;;;;;;;3.85;0.95;;;10.20;99.90;;;;;;5061160;28;20020;-74
2023/01/02 11:29:22;;;;;;;4.70;1.27;;;10.20;99.90;;;;;;5076559;28;20439;-74
2023/01/02 11:31:50;;;;;;;7.43;1.58;;;10.30;99.90;;;;;;5082388;28;20122;-75
2023/01/02 11:34:21;;;;;;;5.45;1.58;;;10.30;99.90;;;;;;5073344;28;20127;-74
2023/01/02 11:37:02;;;;;;;3.50;1.00;;;10.20;99.90;;;;;;5058903;28;20024;-73
2023/01/02 11:39:30;;;;;;;3.90;0.93;;;10.30;99.90;;;;;;5056772;28;20053;-73
2023/01/02 11:44:59;;;;;;;6.80;1.10;;;10.30;99.90;;;;;;5067546;28;20035;-72
2023/01/02 11:47:38;;;;;;;5.20;1.35;;;10.30;99.90;;;;;;5053337;28;20827;-73
2023/01/02 11:50:04;;;;;;;6.03;0.93;;;10.30;99.90;;;;;;5057288;28;20039;-73
2023/01/02 11:52:40;;;;;;;8.90;1.63;;;10.30;99.90;;;;;;5060799;28;20044;-73
2023/01/02 11:55:24;;;;;;;5.25;0.80;;;10.40;99.90;;;;;;5085472;28;20073;-73
2023/01/02 11:57:56;;;;;;;5.28;0.90;;;10.40;99.90;;;;;;5073367;28;20040;-73
2023/01/02 12:00:23;;;;;;;;;;;10.40;99.90;;;;;;5081193;28;20112;-73
2023/01/02 12:02:51;;;;;;;11.15;1.88;;;10.40;99.90;;;;;;5066576;28;20022;-73
2023/01/02 12:05:37;;;;;;;6.80;1.85;;;10.40;99.90;;;;;;5053236;28;20419;-72
2023/01/02 12:08:22;;;;;;;3.75;1.77;;;10.40;99.90;;;;;;5066104;28;20051;-73
2023/01/02 12:11:23;;;;;;;5.80;1.80;;;10.40;99.90;;;;;;5056321;28;20083;-73
2023/01/02 12:14:05;;;;;;;7.05;2.25;;;10.40;99.90;;;;;;5066509;28;20135;-73
2023/01/02 12:16:42;;;;;;;5.47;2.25;;;10.40;99.90;;;;;;5052135;28;20017;-73
2023/01/02 12:19:26;;;;;;;6.38;2.30;;;10.40;99.90;;;;;;5058865;28;20497;-73
2023/01/02 12:22:18;;;;;;;7.47;2.35;;;10.40;99.90;;;;;;5052218;28;20025;-73
2023/01/02 12:25:00;;;;;;;8.35;2.75;;;10.40;99.90;;;;;;5084884;28;20029;-73
2023/01/02 12:27:35;;;;;;;4.88;2.33;;;10.40;99.90;;;;;;5066039;28;20032;-73
2023/01/02 12:30:07;;;;;;;7.95;2.50;;;10.40;99.90;;;;;;5054765;28;20029;-74
2023/01/02 12:32:54;;;;;;;12.32;3.92;;;10.40;99.90;;;;;;5051891;28;20029;-74
2023/01/02 12:35:36;;;;;;;6.90;3.50;;;10.40;99.90;;;;;;5043825;28;20025;-73
2023/01/02 12:38:06;;;;;;;6.80;3.88;;;10.40;99.90;;;;;;5072517;28;20079;-73
2023/01/02 12:40:46;;;;;;;8.73;3.72;;;10.30;99.90;;;;;;5053518;28;20064;-74
2023/01/02 12:43:23;;;;;;;9.50;3.97;;;10.30;99.90;;;;;;5057394;28;20482;-73
2023/01/02 12:45:57;;;;;;;8.52;4.43;;;10.30;99.90;;;;;;5067215;28;20683;-75
2023/01/02 12:48:50;;;;;;;9.18;4.68;;;10.30;99.90;;;;;;5059383;28;20020;-73
2023/01/02 12:51:45;;;;;;;10.43;5.40;;;10.30;99.90;;;;;;5037270;28;20025;-73
2023/01/02 12:54:36;;;;;;;8.60;5.00;;;10.40;99.90;;;;;;5036253;28;20048;-74
2023/01/02 12:57:06;;;;;;;11.27;5.68;;;10.30;99.90;;;;;;5067688;28;20031;-74
2023/01/02 12:59:43;;;;;;;10.35;6.43;;;10.30;99.90;;;;;;5051131;28;20021;-74
2023/01/02 13:02:46;;;;;;;10.02;5.93;;;10.30;99.90;;;;;;5078475;28;20054;-74
2023/01/02 13:05:16;;;;;;;13.52;6.47;;;10.30;99.90;;;;;;5092251;28;20103;-75
2023/01/02 13:08:21;;;;;;;8.43;6.53;;;10.30;99.90;;;;;;5064391;28;20028;-74
2023/01/02 13:10:47;;;;;;;7.90;5.57;;;10.20;99.90;;;;;;5054707;28;20028;-75
2023/01/02 13:13:14;;;;;;;9.73;6.68;;;10.20;99.90;;;;;;5061373;28;20476;-74